sensor_id;sensor_type;location;lat;lon;timestamp;pressure;altitude;pressure_sealevel;temperature;humidity
13695;BME280;6919;52.344;14.518;2023-09-19T00:01:47;100011.66;;;18.20;100.00
13695;BME280;6919;52.344;14.518;2023-09-19T00:04:17;100015.00;;;18.22;100.00
13695;BME280;6919;52.344;14.518;2023-09-19T00:06:50;100011.53;;;18.08;100.00
13695;BME280;6919;52.344;14.518;2023-09-19T00:09:21;100006.72;;;18.10;100.00
13695;BME280;6919;52.344;14.518;2023-09-19T00:11:53;100009.25;;;18.05;100.00
13695;BME280;6919;52.344;14.518;2023-09-19T00:14:24;100021.50;;;18.14;100.00
13695;BME280;6919;52.344;14.518;2023-09-19T00:16:53;100015.94;;;18.03;100.00
13695;BME280;6919;52.344;14.518;2023-09-19T00:19:23;100006.31;;;18.07;100.00
13695;BME280;6919;52.344;14.518;2023-09-19T00:21:52;100010.97;;;18.00;100.00
13695;BME280;6919;52.344;14.518;2023-09-19T00:24:20;100010.06;;;18.12;100.00
13695;BME280;6919;52.344;14.518;2023-09-19T00:26:50;100005.91;;;18.10;100.00
13695;BME280;6919;52.344;14.518;2023-09-19T00:29:18;100002.56;;;18.08;100.00
13695;BME280;6919;52.344;14.518;2023-09-19T00:31:47;99995.91;;;18.04;100.00
13695;BME280;6919;52.344;14.518;2023-09-19T00:34:15;99997.81;;;17.97;100.00
13695;BME280;6919;52.344;14.518;2023-09-19T00:36:45;100001.75;;;18.01;100.00
13695;BME280;6919;52.344;14.518;2023-09-19T00:39:14;100001.38;;;17.97;100.00
13695;BME280;6919;52.344;14.518;2023-09-19T00:41:42;100002.00;;;17.93;100.00
13695;BME280;6919;52.344;14.518;2023-09-19T00:44:11;100007.81;;;17.96;100.00
13695;BME280;6919;52.344;14.518;2023-09-19T00:46:40;99996.59;;;17.93;100.00
13695;BME280;6919;52.344;14.518;2023-09-19T00:49:09;99994.25;;;17.96;100.00
13695;BME280;6919;52.344;14.518;2023-09-19T00:51:38;99988.44;;;17.93;100.00
13695;BME280;6919;52.344;14.518;2023-09-19T00:54:10;99984.84;;;17.99;100.00
13695;BME280;6919;52.344;14.518;2023-09-19T00:56:39;99985.53;;;17.88;100.00
13695;BME280;6919;52.344;14.518;2023-09-19T00:59:09;99975.53;;;17.88;100.00
13695;BME280;6919;52.344;14.518;2023-09-19T01:01:39;99977.81;;;17.91;100.00
13695;BME280;6919;52.344;14.518;2023-09-19T01:04:08;99978.66;;;17.92;100.00
13695;BME280;6919;52.344;14.518;2023-09-19T01:06:37;99980.69;;;17.96;100.00
13695;BME280;6919;52.344;14.518;2023-09-19T01:09:07;99969.72;;;17.85;100.00
13695;BME280;6919;52.344;14.518;2023-09-19T01:11:43;99968.91;;;17.78;100.00
13695;BME280;6919;52.344;14.518;2023-09-19T01:14:30;99967.88;;;17.79;100.00
13695;BME280;6919;52.344;14.518;2023-09-19T01:17:09;99961.22;;;17.75;100.00
13695;BME280;6919;52.344;14.518;2023-09-19T01:20:16;99965.16;;;17.72;100.00
13695;BME280;6919;52.344;14.518;2023-09-19T01:22:57;99958.06;;;17.78;100.00
13695;BME280;6919;52.344;14.518;2023-09-19T01:26:07;99956.59;;;17.75;100.00
13695;BME280;6919;52.344;14.518;2023-09-19T01:29:23;99952.22;;;17.74;100.00
13695;BME280;6919;52.344;14.518;2023-09-19T01:32:01;99946.00;;;17.67;100.00
13695;BME280;6919;52.344;14.518;2023-09-19T01:34:44;99946.84;;;17.68;100.00
13695;BME280;6919;52.344;14.518;2023-09-19T01:37:16;99946.66;;;17.63;100.00
13695;BME280;6919;52.344;14.518;2023-09-19T01:39:49;99948.13;;;17.65;100.00
13695;BME280;6919;52.344;14.518;2023-09-19T01:42:31;99952.28;;;17.61;100.00
13695;BME280;6919;52.344;14.518;2023-09-19T01:45:11;99941.91;;;17.58;100.00
13695;BME280;6919;52.344;14.518;2023-09-19T01:47:50;99942.50;;;17.60;100.00
13695;BME280;6919;52.344;14.518;2023-09-19T01:50:29;99944.81;;;17.57;100.00
13695;BME280;6919;52.344;14.518;2023-09-19T01:53:04;99944.19;;;17.55;100.00
13695;BME280;6919;52.344;14.518;2023-09-19T01:55:41;99940.47;;;17.49;100.00
13695;BME280;6919;52.344;14.518;2023-09-19T01:58:20;99946.25;;;17.52;100.00
13695;BME280;6919;52.344;14.518;2023-09-19T02:00:50;99949.44;;;17.50;100.00
13695;BME280;6919;52.344;14.518;2023-09-19T02:03:22;99945.03;;;17.48;100.00
13695;BME280;6919;52.344;14.518;2023-09-19T02:05:51;99946.50;;;17.44;100.00
13695;BME280;6919;52.344;14.518;2023-09-19T02:08:22;99954.66;;;17.44;100.00
13695;BME280;6919;52.344;14.518;2023-09-19T02:10:52;99947.53;;;17.50;100.00
13695;BME280;6919;52.344;14.518;2023-09-19T02:13:22;99958.81;;;17.47;100.00
13695;BME280;6919;52.344;14.518;2023-09-19T02:15:52;99957.78;;;17.48;100.00
13695;BME280;6919;52.344;14.518;2023-09-19T02:18:21;99966.72;;;17.48;100.00
13695;BME280;6919;52.344;14.518;2023-09-19T02:20:49;99964.88;;;17.42;100.00
13695;BME280;6919;52.344;14.518;2023-09-19T02:23:20;99950.66;;;17.47;100.00
13695;BME280;6919;52.344;14.518;2023-09-19T02:25:52;99954.03;;;17.42;100.00
13695;BME280;6919;52.344;14.518;2023-09-19T02:28:21;99959.47;;;17.42;100.00
13695;BME280;6919;52.344;14.518;2023-09-19T02:30:50;99958.16;;;17.38;100.00
13695;BME280;6919;52.344;14.518;2023-09-19T02:33:18;99959.84;;;17.39;100.00
13695;BME280;6919;52.344;14.518;2023-09-19T02:35:48;99955.44;;;17.52;100.00
13695;BME280;6919;52.344;14.518;2023-09-19T02:38:17;99963.00;;;17.36;100.00
13695;BME280;6919;52.344;14.518;2023-09-19T02:40:51;99955.50;;;17.32;100.00
13695;BME280;6919;52.344;14.518;2023-09-19T02:43:20;99956.13;;;17.34;100.00
13695;BME280;6919;52.344;14.518;2023-09-19T02:45:49;99954.44;;;17.39;100.00
13695;BME280;6919;52.344;14.518;2023-09-19T02:48:17;99946.94;;;17.41;100.00
13695;BME280;6919;52.344;14.518;2023-09-19T02:50:49;99951.94;;;17.44;100.00
13695;BME280;6919;52.344;14.518;2023-09-19T02:53:18;99947.16;;;17.47;100.00
13695;BME280;6919;52.344;14.518;2023-09-19T02:55:47;99954.03;;;17.42;100.00
13695;BME280;6919;52.344;14.518;2023-09-19T02:58:16;99945.69;;;17.44;100.00
13695;BME280;6919;52.344;14.518;2023-09-19T03:00:46;99946.50;;;17.38;100.00
13695;BME280;6919;52.344;14.518;2023-09-19T03:03:17;99952.34;;;17.35;100.00
13695;BME280;6919;52.344;14.518;2023-09-19T03:05:48;99963.66;;;17.25;100.00
13695;BME280;6919;52.344;14.518;2023-09-19T03:08:21;99965.06;;;17.34;100.00
13695;BME280;6919;52.344;14.518;2023-09-19T03:10:50;99967.78;;;17.34;100.00
13695;BME280;6919;52.344;14.518;2023-09-19T03:13:18;99958.63;;;17.29;100.00
13695;BME280;6919;52.344;14.518;2023-09-19T03:15:47;99969.88;;;17.32;100.00
13695;BME280;6919;52.344;14.518;2023-09-19T03:18:16;99964.69;;;17.24;100.00
13695;BME280;6919;52.344;14.518;2023-09-19T03:20:54;99966.13;;;17.20;100.00
13695;BME280;6919;52.344;14.518;2023-09-19T03:23:23;99970.53;;;17.21;100.00
13695;BME280;6919;52.344;14.518;2023-09-19T03:25:53;99973.00;;;17.29;100.00
13695;BME280;6919;52.344;14.518;2023-09-19T03:28:23;99969.91;;;17.19;100.00
13695;BME280;6919;52.344;14.518;2023-09-19T03:30:59;99975.97;;;17.08;100.00
13695;BME280;6919;52.344;14.518;2023-09-19T03:33:28;99972.03;;;17.04;100.00
13695;BME280;6919;52.344;14.518;2023-09-19T03:36:01;99986.81;;;16.95;100.00
13695;BME280;6919;52.344;14.518;2023-09-19T03:38:32;99992.88;;;16.91;100.00
13695;BME280;6919;52.344;14.518;2023-09-19T03:41:03;99997.47;;;16.90;100.00
13695;BME280;6919;52.344;14.518;2023-09-19T03:43:32;99996.22;;;16.86;100.00
13695;BME280;6919;52.344;14.518;2023-09-19T03:46:01;99997.88;;;16.87;100.00
13695;BME280;6919;52.344;14.518;2023-09-19T03:48:32;100002.44;;;16.87;100.00
13695;BME280;6919;52.344;14.518;2023-09-19T03:51:02;100000.59;;;16.87;100.00
13695;BME280;6919;52.344;14.518;2023-09-19T03:53:30;100005.16;;;16.87;100.00
13695;BME280;6919;52.344;14.518;2023-09-19T03:55:58;100004.75;;;16.90;100.00
13695;BME280;6919;52.344;14.518;2023-09-19T03:58:27;100010.38;;;16.82;100.00
13695;BME280;6919;52.344;14.518;2023-09-19T04:00:55;100004.31;;;16.80;100.00
13695;BME280;6919;52.344;14.518;2023-09-19T04:03:24;100016.00;;;16.87;100.00
13695;BME280;6919;52.344;14.518;2023-09-19T04:06:03;100009.97;;;16.78;100.00
13695;BME280;6919;52.344;14.518;2023-09-19T04:08:31;100009.97;;;16.78;100.00
13695;BME280;6919;52.344;14.518;2023-09-19T04:11:00;100006.63;;;16.76;100.00
13695;BME280;6919;52.344;14.518;2023-09-19T04:13:28;100017.66;;;16.75;100.00
13695;BME280;6919;52.344;14.518;2023-09-19T04:15:56;100012.03;;;16.76;100.00
13695;BME280;6919;52.344;14.518;2023-09-19T04:18:25;100016.63;;;16.69;100.00
13695;BME280;6919;52.344;14.518;2023-09-19T04:20:53;100016.81;;;16.68;100.00
13695;BME280;6919;52.344;14.518;2023-09-19T04:23:24;100021.19;;;16.69;100.00
13695;BME280;6919;52.344;14.518;2023-09-19T04:25:52;100023.91;;;16.62;100.00
13695;BME280;6919;52.344;14.518;2023-09-19T04:28:21;100025.97;;;16.60;100.00
13695;BME280;6919;52.344;14.518;2023-09-19T04:30:50;100033.69;;;16.63;100.00
13695;BME280;6919;52.344;14.518;2023-09-19T04:33:18;100039.94;;;16.64;100.00
13695;BME280;6919;52.344;14.518;2023-09-19T04:35:49;100038.69;;;16.66;100.00
13695;BME280;6919;52.344;14.518;2023-09-19T04:38:18;100052.22;;;16.66;100.00
13695;BME280;6919;52.344;14.518;2023-09-19T04:40:48;100044.53;;;16.76;100.00
13695;BME280;6919;52.344;14.518;2023-09-19T04:43:17;100037.88;;;16.72;100.00
13695;BME280;6919;52.344;14.518;2023-09-19T04:45:45;100053.28;;;16.78;100.00
13695;BME280;6919;52.344;14.518;2023-09-19T04:48:14;100059.94;;;16.69;100.00
13695;BME280;6919;52.344;14.518;2023-09-19T04:50:43;100062.25;;;16.72;100.00
13695;BME280;6919;52.344;14.518;2023-09-19T04:53:12;100059.53;;;16.72;100.00
13695;BME280;6919;52.344;14.518;2023-09-19T04:55:40;100066.19;;;16.76;100.00
13695;BME280;6919;52.344;14.518;2023-09-19T04:58:10;100060.78;;;16.76;100.00
13695;BME280;6919;52.344;14.518;2023-09-19T05:00:38;100061.63;;;16.77;100.00
13695;BME280;6919;52.344;14.518;2023-09-19T05:03:06;100065.56;;;16.74;100.00
13695;BME280;6919;52.344;14.518;2023-09-19T05:05:36;100066.59;;;16.73;100.00
13695;BME280;6919;52.344;14.518;2023-09-19T05:08:05;100070.34;;;16.72;100.00
13695;BME280;6919;52.344;14.518;2023-09-19T05:10:36;100068.69;;;16.78;100.00
13695;BME280;6919;52.344;14.518;2023-09-19T05:13:05;100069.53;;;16.78;100.00
13695;BME280;6919;52.344;14.518;2023-09-19T05:15:36;100061.63;;;16.83;100.00
13695;BME280;6919;52.344;14.518;2023-09-19T05:18:04;100060.16;;;16.81;100.00
13695;BME280;6919;52.344;14.518;2023-09-19T05:20:33;100064.53;;;16.88;100.00
13695;BME280;6919;52.344;14.518;2023-09-19T05:23:06;100063.06;;;16.92;100.00
13695;BME280;6919;52.344;14.518;2023-09-19T05:25:41;100061.19;;;16.99;100.00
13695;BME280;6919;52.344;14.518;2023-09-19T05:28:10;100056.41;;;16.88;100.00
13695;BME280;6919;52.344;14.518;2023-09-19T05:30:43;100061.63;;;16.83;100.00
13695;BME280;6919;52.344;14.518;2023-09-19T05:33:15;100063.69;;;16.81;100.00
13695;BME280;6919;52.344;14.518;2023-09-19T05:35:45;100063.31;;;16.91;100.00
13695;BME280;6919;52.344;14.518;2023-09-19T05:38:15;100070.59;;;16.90;100.00
13695;BME280;6919;52.344;14.518;2023-09-19T05:40:46;100066.22;;;17.09;100.00
13695;BME280;6919;52.344;14.518;2023-09-19T05:43:14;100065.16;;;16.97;100.00
13695;BME280;6919;52.344;14.518;2023-09-19T05:45:44;100063.28;;;16.97;100.00
13695;BME280;6919;52.344;14.518;2023-09-19T05:48:14;100074.72;;;16.99;100.00
13695;BME280;6919;52.344;14.518;2023-09-19T05:50:44;100072.25;;;16.91;100.00
13695;BME280;6919;52.344;14.518;2023-09-19T05:53:15;100068.47;;;16.92;100.00
13695;BME280;6919;52.344;14.518;2023-09-19T05:55:45;100073.09;;;16.92;100.00
13695;BME280;6919;52.344;14.518;2023-09-19T05:58:14;100067.06;;;16.96;100.00
13695;BME280;6919;52.344;14.518;2023-09-19T06:00:45;100068.50;;;16.99;100.00
13695;BME280;6919;52.344;14.518;2023-09-19T06:03:15;100067.88;;;16.97;100.00
13695;BME280;6919;52.344;14.518;2023-09-19T06:05:44;100070.81;;;17.02;100.00
13695;BME280;6919;52.344;14.518;2023-09-19T06:08:16;100064.34;;;17.03;100.00
13695;BME280;6919;52.344;14.518;2023-09-19T06:10:46;100080.38;;;17.04;100.00
13695;BME280;6919;52.344;14.518;2023-09-19T06:13:16;100087.88;;;17.09;100.00
13695;BME280;6919;52.344;14.518;2023-09-19T06:15:46;100088.28;;;16.99;100.00
13695;BME280;6919;52.344;14.518;2023-09-19T06:18:16;100083.09;;;17.04;100.00
13695;BME280;6919;52.344;14.518;2023-09-19T06:20:47;100088.09;;;17.14;100.00
13695;BME280;6919;52.344;14.518;2023-09-19T06:23:20;100093.50;;;17.01;100.00
13695;BME280;6919;52.344;14.518;2023-09-19T06:25:49;100094.97;;;17.23;100.00
13695;BME280;6919;52.344;14.518;2023-09-19T06:28:18;100094.13;;;17.22;100.00
13695;BME280;6919;52.344;14.518;2023-09-19T06:30:52;100094.53;;;17.26;100.00
13695;BME280;6919;52.344;14.518;2023-09-19T06:33:21;100090.38;;;17.23;100.00
13695;BME280;6919;52.344;14.518;2023-09-19T06:35:49;100088.50;;;17.37;100.00
13695;BME280;6919;52.344;14.518;2023-09-19T06:38:20;100090.97;;;17.38;100.00
13695;BME280;6919;52.344;14.518;2023-09-19T06:40:48;100109.94;;;17.38;100.00
13695;BME280;6919;52.344;14.518;2023-09-19T06:43:16;100097.03;;;17.40;100.00
13695;BME280;6919;52.344;14.518;2023-09-19T06:45:45;100101.00;;;17.38;100.00
13695;BME280;6919;52.344;14.518;2023-09-19T06:48:15;100104.53;;;17.32;100.00
13695;BME280;6919;52.344;14.518;2023-09-19T06:50:44;100105.81;;;17.29;100.00
13695;BME280;6919;52.344;14.518;2023-09-19T06:53:12;100107.47;;;17.24;100.00
13695;BME280;6919;52.344;14.518;2023-09-19T06:55:41;100111.84;;;17.38;100.00
13695;BME280;6919;52.344;14.518;2023-09-19T06:58:11;100115.63;;;17.43;100.00
13695;BME280;6919;52.344;14.518;2023-09-19T07:00:39;100111.03;;;17.51;100.00
13695;BME280;6919;52.344;14.518;2023-09-19T07:03:08;100111.63;;;17.59;100.00
13695;BME280;6919;52.344;14.518;2023-09-19T07:05:41;100110.38;;;17.62;100.00
13695;BME280;6919;52.344;14.518;2023-09-19T07:08:10;100116.41;;;17.70;100.00
13695;BME280;6919;52.344;14.518;2023-09-19T07:10:40;100112.88;;;17.76;100.00
13695;BME280;6919;52.344;14.518;2023-09-19T07:13:16;100113.28;;;17.73;100.00
13695;BME280;6919;52.344;14.518;2023-09-19T07:15:45;100112.19;;;17.81;100.00
13695;BME280;6919;52.344;14.518;2023-09-19T07:18:18;100114.09;;;17.74;100.00
13695;BME280;6919;52.344;14.518;2023-09-19T07:20:48;100120.38;;;17.74;100.00
13695;BME280;6919;52.344;14.518;2023-09-19T07:23:18;100114.72;;;17.76;100.00
13695;BME280;6919;52.344;14.518;2023-09-19T07:25:49;100118.66;;;17.93;100.00
13695;BME280;6919;52.344;14.518;2023-09-19T07:28:18;100114.03;;;18.00;100.00
13695;BME280;6919;52.344;14.518;2023-09-19T07:30:46;100112.78;;;18.02;100.00
13695;BME280;6919;52.344;14.518;2023-09-19T07:33:14;100121.47;;;18.24;100.00
13695;BME280;6919;52.344;14.518;2023-09-19T07:35:45;100106.34;;;18.47;100.00
13695;BME280;6919;52.344;14.518;2023-09-19T07:38:15;100115.16;;;18.30;100.00
13695;BME280;6919;52.344;14.518;2023-09-19T07:40:44;100115.38;;;18.35;100.00
13695;BME280;6919;52.344;14.518;2023-09-19T07:43:13;100112.59;;;18.54;100.00
13695;BME280;6919;52.344;14.518;2023-09-19T07:45:42;100112.03;;;18.77;100.00
13695;BME280;6919;52.344;14.518;2023-09-19T07:48:10;100123.13;;;18.69;100.00
13695;BME280;6919;52.344;14.518;2023-09-19T07:50:42;100123.84;;;18.58;100.00
13695;BME280;6919;52.344;14.518;2023-09-19T07:53:11;100133.28;;;18.49;100.00
13695;BME280;6919;52.344;14.518;2023-09-19T07:55:42;100135.47;;;18.71;100.00
13695;BME280;6919;52.344;14.518;2023-09-19T07:58:15;100147.34;;;18.77;100.00
13695;BME280;6919;52.344;14.518;2023-09-19T08:00:43;100145.50;;;18.71;100.00
13695;BME280;6919;52.344;14.518;2023-09-19T08:03:13;100154.34;;;18.53;100.00
13695;BME280;6919;52.344;14.518;2023-09-19T08:05:44;100165.53;;;18.76;100.00
13695;BME280;6919;52.344;14.518;2023-09-19T08:08:13;100169.94;;;18.71;100.00
13695;BME280;6919;52.344;14.518;2023-09-19T08:10:44;100173.25;;;18.79;100.00
13695;BME280;6919;52.344;14.518;2023-09-19T08:13:16;100174.25;;;18.41;100.00
13695;BME280;6919;52.344;14.518;2023-09-19T08:15:45;100180.69;;;18.46;100.00
13695;BME280;6919;52.344;14.518;2023-09-19T08:18:15;100195.38;;;18.39;100.00
13695;BME280;6919;52.344;14.518;2023-09-19T08:20:48;100189.28;;;18.30;100.00
13695;BME280;6919;52.344;14.518;2023-09-19T08:23:17;100192.59;;;18.45;100.00
13695;BME280;6919;52.344;14.518;2023-09-19T08:25:49;100193.25;;;18.47;100.00
13695;BME280;6919;52.344;14.518;2023-09-19T08:28:18;100204.44;;;18.64;100.00
13695;BME280;6919;52.344;14.518;2023-09-19T08:30:51;100202.16;;;18.61;100.00
13695;BME280;6919;52.344;14.518;2023-09-19T08:33:20;100187.31;;;18.63;100.00
13695;BME280;6919;52.344;14.518;2023-09-19T08:35:48;100197.69;;;18.79;100.00
13695;BME280;6919;52.344;14.518;2023-09-19T08:38:16;100199.41;;;18.74;100.00
13695;BME280;6919;52.344;14.518;2023-09-19T08:40:45;100190.91;;;18.51;100.00
13695;BME280;6919;52.344;14.518;2023-09-19T08:43:14;100190.06;;;18.57;100.00
13695;BME280;6919;52.344;14.518;2023-09-19T08:45:43;100193.97;;;18.74;100.00
13695;BME280;6919;52.344;14.518;2023-09-19T08:48:22;100190.34;;;18.80;100.00
13695;BME280;6919;52.344;14.518;2023-09-19T08:50:56;100187.41;;;18.81;100.00
13695;BME280;6919;52.344;14.518;2023-09-19T08:53:32;100192.66;;;19.14;100.00
13695;BME280;6919;52.344;14.518;2023-09-19T08:56:10;100189.91;;;19.20;100.00
13695;BME280;6919;52.344;14.518;2023-09-19T08:58:50;100168.38;;;19.50;100.00
13695;BME280;6919;52.344;14.518;2023-09-19T09:01:21;100159.28;;;19.38;100.00
13695;BME280;6919;52.344;14.518;2023-09-19T09:03:53;100146.78;;;19.55;100.00
13695;BME280;6919;52.344;14.518;2023-09-19T09:06:23;100155.81;;;19.73;100.00
13695;BME280;6919;52.344;14.518;2023-09-19T09:08:52;100142.16;;;19.80;100.00
13695;BME280;6919;52.344;14.518;2023-09-19T09:11:22;100146.00;;;19.90;100.00
13695;BME280;6919;52.344;14.518;2023-09-19T09:13:53;100164.09;;;20.03;100.00
13695;BME280;6919;52.344;14.518;2023-09-19T09:16:22;100155.19;;;20.14;100.00
13695;BME280;6919;52.344;14.518;2023-09-19T09:18:53;100158.41;;;20.29;100.00
13695;BME280;6919;52.344;14.518;2023-09-19T09:21:25;100167.06;;;20.19;100.00
13695;BME280;6919;52.344;14.518;2023-09-19T09:23:54;100160.88;;;20.49;100.00
13695;BME280;6919;52.344;14.518;2023-09-19T09:26:41;100163.19;;;19.91;100.00
13695;BME280;6919;52.344;14.518;2023-09-19T09:29:12;100181.41;;;20.08;100.00
13695;BME280;6919;52.344;14.518;2023-09-19T09:31:45;100186.94;;;20.02;100.00
13695;BME280;6919;52.344;14.518;2023-09-19T09:34:16;100184.19;;;19.84;100.00
13695;BME280;6919;52.344;14.518;2023-09-19T09:36:48;100190.75;;;19.94;100.00
13695;BME280;6919;52.344;14.518;2023-09-19T09:39:30;100189.69;;;20.20;100.00
13695;BME280;6919;52.344;14.518;2023-09-19T09:41:59;100186.66;;;20.46;100.00
13695;BME280;6919;52.344;14.518;2023-09-19T09:44:35;100200.00;;;20.54;100.00
13695;BME280;6919;52.344;14.518;2023-09-19T09:47:03;100196.56;;;20.59;93.22
13695;BME280;6919;52.344;14.518;2023-09-19T09:49:49;100192.66;;;20.84;94.42
13695;BME280;6919;52.344;14.518;2023-09-19T09:52:45;100192.09;;;20.82;100.00
13695;BME280;6919;52.344;14.518;2023-09-19T09:55:14;100193.66;;;20.72;97.08
13695;BME280;6919;52.344;14.518;2023-09-19T09:57:43;100197.84;;;20.56;94.47
13695;BME280;6919;52.344;14.518;2023-09-19T10:00:13;100200.06;;;20.48;96.25
13695;BME280;6919;52.344;14.518;2023-09-19T10:02:48;100200.75;;;20.61;95.45
13695;BME280;6919;52.344;14.518;2023-09-19T10:05:18;100204.59;;;20.54;92.73
13695;BME280;6919;52.344;14.518;2023-09-19T10:07:55;100215.88;;;20.75;92.79
13695;BME280;6919;52.344;14.518;2023-09-19T10:10:32;100208.56;;;20.87;80.32
13695;BME280;6919;52.344;14.518;2023-09-19T10:13:22;100209.19;;;20.89;76.97
13695;BME280;6919;52.344;14.518;2023-09-19T10:16:05;100211.00;;;20.77;78.55
13695;BME280;6919;52.344;14.518;2023-09-19T10:18:41;100213.72;;;20.95;76.80
13695;BME280;6919;52.344;14.518;2023-09-19T10:21:11;100207.91;;;21.21;75.71
13695;BME280;6919;52.344;14.518;2023-09-19T10:23:43;100210.03;;;21.60;75.86
13695;BME280;6919;52.344;14.518;2023-09-19T10:26:17;100220.06;;;21.37;76.25
13695;BME280;6919;52.344;14.518;2023-09-19T10:28:49;100224.44;;;21.08;70.22
13695;BME280;6919;52.344;14.518;2023-09-19T10:31:21;100223.47;;;21.32;75.10
13695;BME280;6919;52.344;14.518;2023-09-19T10:33:55;100224.41;;;21.26;70.48
13695;BME280;6919;52.344;14.518;2023-09-19T10:36:25;100241.31;;;20.51;58.45
13695;BME280;6919;52.344;14.518;2023-09-19T10:38:57;100243.50;;;20.61;60.07
13695;BME280;6919;52.344;14.518;2023-09-19T10:41:31;100244.63;;;20.71;64.31
13695;BME280;6919;52.344;14.518;2023-09-19T10:44:04;100250.38;;;21.29;66.83
13695;BME280;6919;52.344;14.518;2023-09-19T10:46:35;100236.22;;;21.20;65.94
13695;BME280;6919;52.344;14.518;2023-09-19T10:49:05;100239.19;;;21.19;56.50
13695;BME280;6919;52.344;14.518;2023-09-19T10:51:42;100234.72;;;21.24;58.36
13695;BME280;6919;52.344;14.518;2023-09-19T10:54:15;100233.78;;;21.30;64.70
13695;BME280;6919;52.344;14.518;2023-09-19T10:56:49;100239.75;;;20.91;66.37
13695;BME280;6919;52.344;14.518;2023-09-19T10:59:21;100241.63;;;21.38;69.08
13695;BME280;6919;52.344;14.518;2023-09-19T11:01:56;100242.03;;;21.53;65.94
13695;BME280;6919;52.344;14.518;2023-09-19T11:04:29;100245.66;;;21.77;63.15
13695;BME280;6919;52.344;14.518;2023-09-19T11:07:03;100243.63;;;21.72;57.17
13695;BME280;6919;52.344;14.518;2023-09-19T11:09:47;100243.75;;;21.36;54.90
13695;BME280;6919;52.344;14.518;2023-09-19T11:12:49;100244.22;;;21.33;54.49
13695;BME280;6919;52.344;14.518;2023-09-19T11:16:02;100240.13;;;21.54;54.42
13695;BME280;6919;52.344;14.518;2023-09-19T11:18:55;100235.97;;;21.51;51.38
13695;BME280;6919;52.344;14.518;2023-09-19T11:21:52;100232.44;;;21.62;53.22
13695;BME280;6919;52.344;14.518;2023-09-19T11:24:31;100232.38;;;21.39;50.26
13695;BME280;6919;52.344;14.518;2023-09-19T11:27:14;100232.38;;;21.39;50.63
13695;BME280;6919;52.344;14.518;2023-09-19T11:29:45;100227.19;;;20.90;50.35
13695;BME280;6919;52.344;14.518;2023-09-19T11:32:15;100237.34;;;20.83;53.02
13695;BME280;6919;52.344;14.518;2023-09-19T11:34:46;100231.75;;;20.78;54.29
13695;BME280;6919;52.344;14.518;2023-09-19T11:37:59;100227.06;;;20.67;55.13
13695;BME280;6919;52.344;14.518;2023-09-19T11:40:38;100226.09;;;20.98;56.79
13695;BME280;6919;52.344;14.518;2023-09-19T11:43:29;100237.03;;;20.91;55.78
13695;BME280;6919;52.344;14.518;2023-09-19T11:46:07;100235.34;;;21.08;52.87
13695;BME280;6919;52.344;14.518;2023-09-19T11:48:39;100222.84;;;21.30;54.44
13695;BME280;6919;52.344;14.518;2023-09-19T11:51:15;100239.97;;;21.08;54.07
13695;BME280;6919;52.344;14.518;2023-09-19T11:53:50;100232.75;;;21.13;53.68
13695;BME280;6919;52.344;14.518;2023-09-19T11:56:21;100233.59;;;21.43;55.47
13695;BME280;6919;52.344;14.518;2023-09-19T11:58:52;100240.63;;;21.51;53.45
13695;BME280;6919;52.344;14.518;2023-09-19T12:01:29;100238.44;;;21.41;53.03
13695;BME280;6919;52.344;14.518;2023-09-19T12:04:02;100237.28;;;21.49;54.01
13695;BME280;6919;52.344;14.518;2023-09-19T12:06:34;100242.50;;;21.50;54.94
13695;BME280;6919;52.344;14.518;2023-09-19T12:09:03;100250.50;;;21.75;55.51
13695;BME280;6919;52.344;14.518;2023-09-19T12:11:43;100244.34;;;21.79;53.46
13695;BME280;6919;52.344;14.518;2023-09-19T12:14:22;100253.00;;;21.76;54.88
13695;BME280;6919;52.344;14.518;2023-09-19T12:16:54;100241.78;;;21.43;55.12
13695;BME280;6919;52.344;14.518;2023-09-19T12:19:23;100250.97;;;21.72;56.00
13695;BME280;6919;52.344;14.518;2023-09-19T12:21:58;100255.81;;;21.70;55.67
13695;BME280;6919;52.344;14.518;2023-09-19T12:24:32;100243.44;;;21.85;55.14
13695;BME280;6919;52.344;14.518;2023-09-19T12:27:05;100249.75;;;22.20;53.03
13695;BME280;6919;52.344;14.518;2023-09-19T12:29:43;100247.69;;;21.93;53.63
13695;BME280;6919;52.344;14.518;2023-09-19T12:32:12;100242.19;;;21.70;53.61
13695;BME280;6919;52.344;14.518;2023-09-19T12:34:51;100243.88;;;21.41;54.19
13695;BME280;6919;52.344;14.518;2023-09-19T12:37:23;100247.69;;;21.40;56.10
13695;BME280;6919;52.344;14.518;2023-09-19T12:40:06;100241.88;;;21.37;57.51
13695;BME280;6919;52.344;14.518;2023-09-19T12:42:46;100240.84;;;21.61;57.16
13695;BME280;6919;52.344;14.518;2023-09-19T12:45:17;100246.66;;;21.94;56.19
13695;BME280;6919;52.344;14.518;2023-09-19T12:48:23;100249.00;;;21.90;56.79
13695;BME280;6919;52.344;14.518;2023-09-19T12:51:04;100251.25;;;21.41;56.14
13695;BME280;6919;52.344;14.518;2023-09-19T12:53:41;100252.72;;;21.55;55.64
13695;BME280;6919;52.344;14.518;2023-09-19T12:56:13;100256.22;;;21.73;54.45
13695;BME280;6919;52.344;14.518;2023-09-19T12:58:55;100249.94;;;21.73;52.66
13695;BME280;6919;52.344;14.518;2023-09-19T13:01:27;100253.91;;;21.59;54.18
13695;BME280;6919;52.344;14.518;2023-09-19T13:04:13;100251.81;;;21.31;55.61
13695;BME280;6919;52.344;14.518;2023-09-19T13:06:46;100251.03;;;21.42;58.34
13695;BME280;6919;52.344;14.518;2023-09-19T13:09:19;100242.41;;;21.27;56.90
13695;BME280;6919;52.344;14.518;2023-09-19T13:11:49;100253.81;;;21.06;58.04
13695;BME280;6919;52.344;14.518;2023-09-19T13:14:21;100245.69;;;21.47;58.70